Whiteoak, Indiana
Current Conditions -  °F | °C
As of 3:35 AM on Thursday 18 Dec 2014 (Local Time) from KHNB Reporting Station
Few Clouds Few Clouds  
Wind Chill: 23°   Ceiling: Unl
Heat Index: 28°   Visibility: 10mi
Dew Point: 21°   Wind: 5mph
Humidity: 74%   Direction: 30°NNE
Pressure: 30.28"   Gusts: NA
Location:  38.3488°N, 87.2217°W
Report Text: KHNB 180935Z AUTO 03004KT 10SM FEW016 M02/M06 A3028 RMK AO1
Loading
Personal Weather Stations






























Interactive Weather Map New forecast layout! Learn more

10-Day Weather Forecast

Advertisements
Track Severe Weather on mobile